Time;durP1;ratioP1;P1;durP2;ratioP2;P2;SDS_P1;SDS_P2;PMS_P1;PMS_P2;Temp;Humidity;BMP_temperature;BMP_pressure;BME280_temperature;BME280_humidity;BME280_pressure;Samples;Min_cycle;Max_cycle;Signal;HPM_P1;HPM_P2
2024/01/15 00:01:56;;;;;;;20.55;8.77;;;;;;;;;;4985470;28;25133;-59
2024/01/15 00:04:22;;;;;;;20.65;8.15;;;;;;;;;;4984114;28;25084;-63
2024/01/15 00:06:49;;;;;;;17.45;7.95;;;;;;;;;;4984226;28;25055;-60
2024/01/15 00:09:15;;;;;;;20.25;7.68;;;;;;;;;;4983078;28;25110;-64
2024/01/15 00:11:41;;;;;;;21.40;7.90;;;;;;;;;;4989911;28;25111;-62
2024/01/15 00:14:07;;;;;;;19.02;7.28;;;;;;;;;;4984912;28;25104;-63
2024/01/15 00:16:33;;;;;;;21.13;7.75;;;;;;;;;;4989344;28;25167;-62
2024/01/15 00:18:59;;;;;;;11.48;7.32;;;;;;;;;;4989681;28;25051;-63
2024/01/15 00:21:25;;;;;;;13.20;6.93;;;;;;;;;;4989912;28;25057;-60
2024/01/15 00:23:51;;;;;;;13.60;7.80;;;;;;;;;;4988184;28;25063;-61
2024/01/15 00:26:17;;;;;;;14.45;7.63;;;;;;;;;;4987566;28;25063;-61
2024/01/15 00:28:43;;;;;;;14.93;7.85;;;;;;;;;;4980460;28;25072;-61
2024/01/15 00:31:09;;;;;;;10.70;7.60;;;;;;;;;;4974382;28;25144;-62
2024/01/15 00:33:35;;;;;;;13.73;7.35;;;;;;;;;;4995805;28;25077;-64
2024/01/15 00:36:01;;;;;;;19.00;6.43;;;;;;;;;;4987845;28;25077;-62
2024/01/15 00:38:27;;;;;;;13.68;6.30;;;;;;;;;;4989296;28;25168;-60
2024/01/15 00:40:53;;;;;;;16.88;5.60;;;;;;;;;;4972406;28;25065;-62
2024/01/15 00:43:19;;;;;;;20.15;6.32;;;;;;;;;;4961606;28;25153;-62
2024/01/15 00:45:45;;;;;;;18.70;6.93;;;;;;;;;;4962832;28;25109;-62
2024/01/15 00:48:11;;;;;;;15.85;6.32;;;;;;;;;;4965312;28;25135;-64
2024/01/15 00:50:37;;;;;;;11.90;5.63;;;;;;;;;;4958446;28;25074;-64
2024/01/15 00:53:03;;;;;;;14.27;6.47;;;;;;;;;;4965657;28;25105;-64
2024/01/15 00:55:29;;;;;;;15.70;6.50;;;;;;;;;;4964765;28;25083;-63
2024/01/15 00:57:55;;;;;;;18.98;6.47;;;;;;;;;;4970605;28;25109;-62
2024/01/15 01:00:21;;;;;;;13.60;6.80;;;;;;;;;;4967980;28;25069;-62
2024/01/15 01:02:47;;;;;;;16.52;8.00;;;;;;;;;;4987994;28;25078;-62
2024/01/15 01:05:13;;;;;;;16.17;5.88;;;;;;;;;;4986626;28;25060;-62
2024/01/15 01:07:39;;;;;;;20.05;7.10;;;;;;;;;;4986323;28;25110;-61
2024/01/15 01:10:06;;;;;;;16.88;6.88;;;;;;;;;;4988753;28;25254;-60
2024/01/15 01:12:32;;;;;;;17.27;5.30;;;;;;;;;;4988370;28;25081;-61
2024/01/15 01:14:58;;;;;;;13.93;5.47;;;;;;;;;;4986706;28;25071;-62
2024/01/15 01:17:24;;;;;;;14.30;5.93;;;;;;;;;;4988762;28;25183;-62
2024/01/15 01:19:50;;;;;;;11.05;5.38;;;;;;;;;;4987339;28;25075;-62
2024/01/15 01:22:16;;;;;;;22.08;6.30;;;;;;;;;;4982423;28;25087;-60
2024/01/15 01:24:42;;;;;;;17.52;6.05;;;;;;;;;;4984298;28;25103;-61
2024/01/15 01:27:08;;;;;;;22.17;7.03;;;;;;;;;;4989142;28;25108;-62
2024/01/15 01:29:34;;;;;;;20.33;7.38;;;;;;;;;;4984920;28;25085;-62
2024/01/15 01:32:00;;;;;;;19.88;7.28;;;;;;;;;;4985325;28;25059;-60
2024/01/15 01:34:26;;;;;;;23.92;7.18;;;;;;;;;;4981132;28;25078;-62
2024/01/15 01:36:52;;;;;;;23.20;7.95;;;;;;;;;;4984032;28;25074;-60
2024/01/15 01:39:18;;;;;;;19.98;7.82;;;;;;;;;;4983741;28;25070;-61
2024/01/15 01:41:44;;;;;;;23.88;6.10;;;;;;;;;;4985675;28;25159;-62
2024/01/15 01:44:10;;;;;;;18.85;5.47;;;;;;;;;;4983677;28;25048;-61
2024/01/15 01:46:40;;;;;;;15.90;6.38;;;;;;;;;;4979757;28;25131;-61
2024/01/15 01:49:07;;;;;;;18.95;5.40;;;;;;;;;;4978182;28;24821;-62
2024/01/15 01:51:34;;;;;;;25.83;6.78;;;;;;;;;;4986351;28;25082;-64
2024/01/15 01:54:00;;;;;;;19.42;6.50;;;;;;;;;;4983847;28;25072;-60
2024/01/15 01:56:27;;;;;;;18.23;7.28;;;;;;;;;;4986793;28;25063;-61
2024/01/15 01:58:53;;;;;;;19.48;7.47;;;;;;;;;;4984647;28;25044;-63
2024/01/15 02:01:19;;;;;;;18.27;7.40;;;;;;;;;;4987915;28;25072;-60
2024/01/15 02:03:45;;;;;;;29.52;6.57;;;;;;;;;;4987573;28;25138;-60
2024/01/15 02:06:11;;;;;;;15.07;7.05;;;;;;;;;;4988481;28;25155;-63
2024/01/15 02:08:38;;;;;;;15.32;6.80;;;;;;;;;;4978555;28;25133;-61
2024/01/15 02:11:04;;;;;;;15.32;6.82;;;;;;;;;;4970777;28;25050;-61
2024/01/15 02:13:30;;;;;;;11.60;6.32;;;;;;;;;;4971404;28;25078;-62
2024/01/15 02:15:56;;;;;;;19.75;6.35;;;;;;;;;;4970494;28;25063;-61
2024/01/15 02:18:22;;;;;;;15.82;6.57;;;;;;;;;;4971805;28;25138;-61
2024/01/15 02:20:48;;;;;;;10.55;5.53;;;;;;;;;;4963973;28;25095;-61
2024/01/15 02:23:14;;;;;;;13.25;6.10;;;;;;;;;;4961603;28;25094;-61
2024/01/15 02:25:41;;;;;;;18.38;6.15;;;;;;;;;;4969232;28;25141;-62
2024/01/15 02:28:12;;;;;;;14.43;6.50;;;;;;;;;;4976064;28;25094;-61
2024/01/15 02:30:39;;;;;;;14.90;5.95;;;;;;;;;;4985226;28;25053;-60
2024/01/15 02:33:05;;;;;;;13.10;6.65;;;;;;;;;;4985575;28;25147;-61
2024/01/15 02:35:31;;;;;;;15.85;6.97;;;;;;;;;;4982973;28;25054;-60
2024/01/15 02:37:57;;;;;;;18.95;6.55;;;;;;;;;;4982077;28;25197;-61
2024/01/15 02:40:23;;;;;;;12.55;6.22;;;;;;;;;;4988860;28;25053;-61
2024/01/15 02:42:49;;;;;;;18.17;6.03;;;;;;;;;;4988784;28;25070;-62
2024/01/15 02:45:15;;;;;;;16.85;6.75;;;;;;;;;;4991918;28;25120;-61
2024/01/15 02:47:41;;;;;;;14.52;6.93;;;;;;;;;;4987685;28;25059;-61
2024/01/15 02:50:07;;;;;;;16.88;7.82;;;;;;;;;;4986514;28;25078;-61
2024/01/15 02:52:33;;;;;;;18.30;8.05;;;;;;;;;;4993278;28;25127;-61
2024/01/15 02:54:59;;;;;;;15.95;7.70;;;;;;;;;;4985955;28;25146;-60
2024/01/15 02:57:25;;;;;;;14.30;7.25;;;;;;;;;;4992012;28;25078;-61
2024/01/15 02:59:51;;;;;;;20.55;8.05;;;;;;;;;;4974294;28;25156;-61
2024/01/15 03:02:17;;;;;;;21.42;8.43;;;;;;;;;;4983078;28;25154;-60
2024/01/15 03:04:46;;;;;;;28.35;8.55;;;;;;;;;;4992921;28;25087;-61
2024/01/15 03:07:12;;;;;;;13.75;8.00;;;;;;;;;;4981210;28;25062;-61
2024/01/15 03:09:38;;;;;;;13.13;7.72;;;;;;;;;;4970257;28;25080;-60
2024/01/15 03:12:04;;;;;;;17.52;8.27;;;;;;;;;;4971521;28;25056;-60
2024/01/15 03:14:30;;;;;;;16.05;7.20;;;;;;;;;;4965813;28;25136;-61
2024/01/15 03:16:56;;;;;;;15.23;7.13;;;;;;;;;;4971234;28;25147;-61
2024/01/15 03:19:22;;;;;;;12.32;6.88;;;;;;;;;;4970335;28;25049;-61
2024/01/15 03:21:48;;;;;;;14.20;7.20;;;;;;;;;;4968615;28;25071;-60
2024/01/15 03:24:14;;;;;;;12.73;6.90;;;;;;;;;;4965113;28;25065;-60
2024/01/15 03:26:40;;;;;;;19.30;7.88;;;;;;;;;;4975394;28;25097;-61
2024/01/15 03:29:07;;;;;;;11.73;7.00;;;;;;;;;;4976263;28;25057;-62
2024/01/15 03:31:33;;;;;;;16.58;6.30;;;;;;;;;;4977359;28;25149;-61
2024/01/15 03:33:59;;;;;;;15.85;7.32;;;;;;;;;;4974056;28;25084;-61
2024/01/15 03:36:25;;;;;;;12.43;7.22;;;;;;;;;;4993252;28;25077;-60
2024/01/15 03:38:51;;;;;;;14.65;6.65;;;;;;;;;;4973191;28;25057;-62
2024/01/15 03:41:16;;;;;;;11.75;7.10;;;;;;;;;;4974661;28;25051;-62
2024/01/15 03:43:42;;;;;;;10.82;7.50;;;;;;;;;;4971164;28;25073;-61
2024/01/15 03:46:08;;;;;;;15.95;5.65;;;;;;;;;;4973289;28;25048;-60
2024/01/15 03:48:34;;;;;;;11.75;6.05;;;;;;;;;;4968391;28;25085;-60
2024/01/15 03:51:00;;;;;;;11.45;6.00;;;;;;;;;;4968072;28;25067;-61
2024/01/15 03:53:26;;;;;;;17.52;6.45;;;;;;;;;;4969959;28;25100;-61
2024/01/15 03:55:52;;;;;;;12.40;6.55;;;;;;;;;;4967590;28;25063;-61
2024/01/15 03:58:18;;;;;;;8.50;7.10;;;;;;;;;;4970815;28;25058;-61
2024/01/15 04:00:44;;;;;;;8.88;7.70;;;;;;;;;;4968552;28;25075;-61
2024/01/15 04:03:10;;;;;;;9.82;7.65;;;;;;;;;;4964797;28;25070;-61
2024/01/15 04:05:36;;;;;;;8.57;7.78;;;;;;;;;;4969871;28;25068;-61
2024/01/15 04:08:02;;;;;;;9.40;8.55;;;;;;;;;;4964291;28;25075;-63
2024/01/15 04:10:28;;;;;;;8.77;7.97;;;;;;;;;;4969026;28;25060;-61
2024/01/15 04:12:54;;;;;;;10.57;8.65;;;;;;;;;;4966004;28;25146;-60
2024/01/15 04:15:20;;;;;;;8.85;7.95;;;;;;;;;;4967552;28;25063;-61
2024/01/15 04:17:46;;;;;;;13.32;7.50;;;;;;;;;;4968181;28;25060;-61
2024/01/15 04:20:12;;;;;;;14.52;7.38;;;;;;;;;;4965513;28;25067;-62
2024/01/15 04:22:38;;;;;;;13.48;8.73;;;;;;;;;;4971393;28;25065;-60
2024/01/15 04:25:05;;;;;;;14.30;7.85;;;;;;;;;;4960394;28;25058;-62
2024/01/15 04:27:31;;;;;;;13.38;7.68;;;;;;;;;;4964566;28;25132;-60
2024/01/15 04:29:57;;;;;;;10.13;7.75;;;;;;;;;;4967407;28;25096;-61
2024/01/15 04:32:22;;;;;;;11.35;7.82;;;;;;;;;;4966802;28;25057;-62
2024/01/15 04:34:49;;;;;;;9.35;8.02;;;;;;;;;;4967713;28;25119;-61
2024/01/15 04:37:14;;;;;;;16.65;8.15;;;;;;;;;;4968493;28;25072;-61
2024/01/15 04:39:40;;;;;;;14.38;7.53;;;;;;;;;;4970448;28;25063;-62
2024/01/15 04:42:06;;;;;;;11.93;7.15;;;;;;;;;;4985705;28;25131;-61
2024/01/15 04:44:32;;;;;;;10.95;7.32;;;;;;;;;;4984400;28;25134;-61
2024/01/15 04:46:58;;;;;;;9.75;6.18;;;;;;;;;;4974923;28;25070;-60
2024/01/15 04:49:27;;;;;;;13.55;6.97;;;;;;;;;;4968703;28;25100;-62
2024/01/15 04:51:53;;;;;;;11.02;5.88;;;;;;;;;;4967255;28;25050;-60
2024/01/15 04:54:20;;;;;;;8.18;4.80;;;;;;;;;;4962935;28;25073;-61
2024/01/15 04:56:46;;;;;;;5.13;3.20;;;;;;;;;;4967025;28;25048;-62
2024/01/15 04:59:12;;;;;;;4.05;3.75;;;;;;;;;;4964237;28;25073;-63
2024/01/15 05:01:38;;;;;;;6.65;4.45;;;;;;;;;;4964870;28;25096;-62
2024/01/15 05:04:04;;;;;;;4.57;3.88;;;;;;;;;;4957061;28;25096;-61
2024/01/15 05:06:30;;;;;;;6.75;4.32;;;;;;;;;;4963489;28;25169;-60
2024/01/15 05:08:56;;;;;;;11.75;4.25;;;;;;;;;;4958800;28;25071;-61
2024/01/15 05:11:22;;;;;;;6.40;4.85;;;;;;;;;;4967041;28;25144;-62
2024/01/15 05:13:48;;;;;;;3.83;3.53;;;;;;;;;;4971079;28;25085;-62
2024/01/15 05:16:14;;;;;;;5.15;3.25;;;;;;;;;;4976821;28;25064;-62
2024/01/15 05:18:39;;;;;;;4.45;3.20;;;;;;;;;;4990222;28;25084;-63
2024/01/15 05:21:05;;;;;;;4.00;2.65;;;;;;;;;;4966469;28;25099;-61
2024/01/15 05:23:32;;;;;;;7.68;3.30;;;;;;;;;;4966369;28;25074;-63
2024/01/15 05:25:58;;;;;;;5.13;2.30;;;;;;;;;;4974115;28;25050;-61
2024/01/15 05:28:24;;;;;;;7.85;3.10;;;;;;;;;;4979804;28;25150;-61
2024/01/15 05:30:51;;;;;;;6.80;2.50;;;;;;;;;;4967019;28;25097;-63
2024/01/15 05:33:17;;;;;;;10.60;6.25;;;;;;;;;;4966153;28;25112;-62
2024/01/15 05:35:43;;;;;;;7.35;3.50;;;;;;;;;;4975997;28;25070;-61
2024/01/15 05:38:09;;;;;;;9.10;4.45;;;;;;;;;;4985074;28;25054;-63
2024/01/15 05:40:35;;;;;;;9.15;3.88;;;;;;;;;;4979660;28;25134;-61
2024/01/15 05:43:01;;;;;;;6.05;3.95;;;;;;;;;;4978433;28;25082;-62
2024/01/15 05:45:27;;;;;;;11.82;4.35;;;;;;;;;;4986581;28;25067;-61
2024/01/15 05:47:53;;;;;;;3.25;2.70;;;;;;;;;;4984977;28;25111;-61
2024/01/15 05:50:19;;;;;;;5.10;3.17;;;;;;;;;;4984735;28;25089;-65
2024/01/15 05:52:45;;;;;;;6.57;2.92;;;;;;;;;;4983683;28;25074;-61
2024/01/15 05:55:11;;;;;;;5.80;3.22;;;;;;;;;;4981323;28;25063;-62
2024/01/15 05:57:37;;;;;;;10.13;2.90;;;;;;;;;;4961662;28;25156;-63
2024/01/15 06:00:04;;;;;;;11.07;2.33;;;;;;;;;;4959185;28;25153;-63
2024/01/15 06:02:30;;;;;;;6.32;2.63;;;;;;;;;;4960245;28;25115;-65
2024/01/15 06:04:56;;;;;;;7.72;3.20;;;;;;;;;;4962683;28;25168;-66
2024/01/15 06:07:23;;;;;;;9.70;3.22;;;;;;;;;;4961846;28;25124;-65
2024/01/15 06:09:49;;;;;;;8.70;3.78;;;;;;;;;;4966683;28;25064;-67
2024/01/15 06:12:15;;;;;;;8.60;4.85;;;;;;;;;;4964133;28;25059;-66
2024/01/15 06:14:42;;;;;;;10.73;5.43;;;;;;;;;;4963041;28;25072;-64
2024/01/15 06:17:08;;;;;;;7.72;5.40;;;;;;;;;;4966129;28;25067;-66
2024/01/15 06:19:34;;;;;;;9.73;5.72;;;;;;;;;;4965592;28;25061;-65
2024/01/15 06:22:00;;;;;;;7.20;4.75;;;;;;;;;;4966935;28;25071;-64
2024/01/15 06:24:26;;;;;;;8.90;4.50;;;;;;;;;;4966349;28;25084;-66
2024/01/15 06:26:52;;;;;;;11.27;4.75;;;;;;;;;;4963790;28;25137;-65
2024/01/15 06:29:18;;;;;;;7.65;4.40;;;;;;;;;;4960037;28;25147;-65
2024/01/15 06:31:44;;;;;;;8.43;5.40;;;;;;;;;;4959376;28;25053;-63
2024/01/15 06:34:10;;;;;;;12.65;6.03;;;;;;;;;;4954080;28;25108;-64
2024/01/15 06:36:36;;;;;;;10.70;5.55;;;;;;;;;;4953513;28;25134;-64
2024/01/15 06:39:02;;;;;;;7.93;4.82;;;;;;;;;;4964541;28;25144;-64
2024/01/15 06:41:28;;;;;;;9.55;3.50;;;;;;;;;;4965483;28;24878;-68
2024/01/15 06:43:55;;;;;;;10.60;4.97;;;;;;;;;;4961739;28;25082;-64
2024/01/15 06:46:21;;;;;;;8.70;3.40;;;;;;;;;;4960379;28;25056;-67
2024/01/15 06:48:47;;;;;;;9.05;3.00;;;;;;;;;;4959775;28;25136;-66
2024/01/15 06:51:13;;;;;;;4.95;2.53;;;;;;;;;;4965424;28;25076;-66
2024/01/15 06:53:39;;;;;;;4.55;2.15;;;;;;;;;;4963735;28;25100;-64
2024/01/15 06:56:05;;;;;;;2.47;1.95;;;;;;;;;;4968559;28;25057;-67
2024/01/15 06:58:31;;;;;;;2.97;2.10;;;;;;;;;;4962777;28;25156;-65
2024/01/15 07:00:57;;;;;;;2.60;1.92;;;;;;;;;;4961084;28;25042;-66
2024/01/15 07:03:24;;;;;;;6.90;2.00;;;;;;;;;;4968416;28;25100;-65
2024/01/15 07:05:50;;;;;;;3.97;1.95;;;;;;;;;;4964039;28;25161;-66
2024/01/15 07:08:16;;;;;;;3.58;1.60;;;;;;;;;;4962340;28;25084;-64
2024/01/15 07:10:42;;;;;;;5.05;1.80;;;;;;;;;;4967609;28;25113;-64
2024/01/15 07:13:08;;;;;;;6.68;2.20;;;;;;;;;;4960640;28;25105;-64
2024/01/15 07:15:34;;;;;;;6.30;2.53;;;;;;;;;;4968228;28;25064;-64
2024/01/15 07:18:00;;;;;;;3.95;2.30;;;;;;;;;;4967696;28;25072;-63
2024/01/15 07:20:26;;;;;;;8.35;2.35;;;;;;;;;;4959790;28;25096;-65
2024/01/15 07:22:52;;;;;;;7.50;2.75;;;;;;;;;;4961716;28;25099;-65
2024/01/15 07:25:18;;;;;;;15.20;4.40;;;;;;;;;;4962001;28;25055;-65
2024/01/15 07:27:44;;;;;;;9.10;3.42;;;;;;;;;;4961599;28;25091;-65
2024/01/15 07:30:13;;;;;;;8.32;3.08;;;;;;;;;;4988283;28;25084;-65
2024/01/15 07:32:40;;;;;;;8.45;2.90;;;;;;;;;;4988130;28;25095;-65
2024/01/15 07:35:06;;;;;;;11.98;4.03;;;;;;;;;;4982350;28;25143;-66
2024/01/15 07:37:33;;;;;;;14.88;5.30;;;;;;;;;;4986248;28;25083;-65
2024/01/15 07:39:59;;;;;;;12.50;5.68;;;;;;;;;;4988893;28;25065;-63
2024/01/15 07:42:25;;;;;;;9.05;5.72;;;;;;;;;;4989827;28;25059;-65
2024/01/15 07:44:51;;;;;;;16.58;6.32;;;;;;;;;;4989298;28;25051;-65
2024/01/15 07:47:17;;;;;;;14.88;6.00;;;;;;;;;;4977967;28;25082;-67
2024/01/15 07:49:43;;;;;;;17.38;6.97;;;;;;;;;;4970666;28;25072;-66
2024/01/15 07:52:11;;;;;;;11.95;7.28;;;;;;;;;;4974140;28;25084;-65
2024/01/15 07:54:37;;;;;;;10.02;6.75;;;;;;;;;;4973778;28;25097;-64
2024/01/15 07:57:03;;;;;;;16.27;7.38;;;;;;;;;;4973196;28;25075;-65
2024/01/15 07:59:29;;;;;;;16.35;7.43;;;;;;;;;;4971071;28;25052;-65
2024/01/15 08:01:55;;;;;;;11.68;6.32;;;;;;;;;;4975109;28;25101;-66
2024/01/15 08:04:24;;;;;;;13.07;7.20;;;;;;;;;;4970815;28;25071;-64
2024/01/15 08:06:50;;;;;;;9.15;6.90;;;;;;;;;;4960383;28;25061;-64
2024/01/15 08:09:16;;;;;;;16.40;6.93;;;;;;;;;;4967025;28;25141;-66
2024/01/15 08:11:42;;;;;;;13.27;5.72;;;;;;;;;;4965230;28;25126;-65
2024/01/15 08:14:09;;;;;;;12.13;5.35;;;;;;;;;;4964876;28;25057;-65
2024/01/15 08:16:35;;;;;;;16.88;5.43;;;;;;;;;;4966412;28;25100;-65
2024/01/15 08:19:01;;;;;;;21.67;5.18;;;;;;;;;;4964715;28;25085;-64
2024/01/15 08:21:29;;;;;;;15.48;5.07;;;;;;;;;;4957405;28;25055;-64
2024/01/15 08:23:56;;;;;;;16.58;5.18;;;;;;;;;;4984803;28;25088;-63
2024/01/15 08:26:22;;;;;;;17.27;4.35;;;;;;;;;;4987378;28;25072;-64
2024/01/15 08:28:48;;;;;;;19.85;4.25;;;;;;;;;;4985100;28;25059;-63
2024/01/15 08:31:14;;;;;;;9.13;4.05;;;;;;;;;;4984248;28;25117;-66
2024/01/15 08:33:40;;;;;;;9.10;3.45;;;;;;;;;;4985908;28;25104;-65
2024/01/15 08:36:06;;;;;;;15.15;3.70;;;;;;;;;;4984944;28;25109;-63
2024/01/15 08:38:32;;;;;;;10.52;3.70;;;;;;;;;;4969814;28;25089;-64
2024/01/15 08:41:00;;;;;;;11.23;3.15;;;;;;;;;;4963880;28;25074;-64
2024/01/15 08:43:26;;;;;;;15.63;3.67;;;;;;;;;;4967012;28;25076;-64
2024/01/15 08:45:52;;;;;;;15.93;3.25;;;;;;;;;;4985073;28;25094;-63
2024/01/15 08:48:18;;;;;;;18.45;3.85;;;;;;;;;;4986797;28;25107;-65
2024/01/15 08:50:47;;;;;;;15.13;4.10;;;;;;;;;;4979399;28;25062;-64
2024/01/15 08:53:13;;;;;;;11.48;3.75;;;;;;;;;;4977496;28;25072;-63
2024/01/15 08:55:39;;;;;;;26.80;4.10;;;;;;;;;;4976240;28;25072;-66
2024/01/15 08:58:06;;;;;;;16.17;3.33;;;;;;;;;;4984765;28;25076;-62
2024/01/15 09:00:32;;;;;;;8.43;3.95;;;;;;;;;;4975001;28;25083;-61
2024/01/15 09:02:58;;;;;;;13.90;4.00;;;;;;;;;;4983921;28;25165;-61
2024/01/15 09:05:24;;;;;;;12.93;4.03;;;;;;;;;;4977239;28;25054;-62
2024/01/15 09:07:51;;;;;;;13.48;4.40;;;;;;;;;;4977392;28;25089;-61
2024/01/15 09:10:18;;;;;;;12.60;3.55;;;;;;;;;;4979811;28;25096;-62
2024/01/15 09:12:44;;;;;;;10.82;4.10;;;;;;;;;;4981600;28;25079;-63
2024/01/15 09:15:09;;;;;;;7.20;2.80;;;;;;;;;;4981126;28;25046;-61
2024/01/15 09:17:35;;;;;;;8.65;3.28;;;;;;;;;;4979354;28;25112;-62
2024/01/15 09:20:04;;;;;;;6.88;3.10;;;;;;;;;;4969816;28;25125;-61
2024/01/15 09:22:30;;;;;;;10.02;3.70;;;;;;;;;;4972292;28;25104;-62
2024/01/15 09:24:56;;;;;;;9.60;3.72;;;;;;;;;;4978287;28;25083;-60
2024/01/15 09:27:22;;;;;;;5.28;2.95;;;;;;;;;;4987000;28;25077;-63
2024/01/15 09:29:48;;;;;;;12.05;3.25;;;;;;;;;;4981192;28;25071;-60
2024/01/15 09:32:14;;;;;;;9.65;3.00;;;;;;;;;;4987913;28;25080;-62
2024/01/15 09:34:41;;;;;;;13.00;3.25;;;;;;;;;;4989504;28;25099;-61
2024/01/15 09:37:07;;;;;;;14.85;3.38;;;;;;;;;;4983278;28;25056;-62
2024/01/15 09:39:33;;;;;;;11.35;3.70;;;;;;;;;;4982722;28;25159;-61
2024/01/15 09:41:59;;;;;;;7.68;3.17;;;;;;;;;;4996603;28;25049;-59
2024/01/15 09:44:26;;;;;;;9.43;3.28;;;;;;;;;;4987447;28;25139;-63
2024/01/15 09:46:52;;;;;;;12.70;3.40;;;;;;;;;;4967705;28;25119;-61
2024/01/15 09:49:18;;;;;;;11.15;3.70;;;;;;;;;;4957883;28;25055;-62
2024/01/15 09:51:45;;;;;;;20.92;3.10;;;;;;;;;;4967665;28;25137;-60
2024/01/15 09:54:13;;;;;;;6.85;2.80;;;;;;;;;;4985237;28;25077;-62
2024/01/15 09:56:39;;;;;;;14.35;2.97;;;;;;;;;;4993274;28;25155;-60
2024/01/15 09:59:06;;;;;;;11.43;2.60;;;;;;;;;;4984795;28;25073;-61
2024/01/15 10:01:32;;;;;;;12.75;2.60;;;;;;;;;;4975587;28;25071;-60
2024/01/15 10:03:58;;;;;;;6.78;2.70;;;;;;;;;;4983492;28;25164;-61
2024/01/15 10:06:27;;;;;;;9.93;3.20;;;;;;;;;;4917594;23;1113211;-70
2024/01/15 10:08:54;;;;;;;9.55;3.17;;;;;;;;;;4955762;28;25150;-74
2024/01/15 10:11:20;;;;;;;11.15;3.00;;;;;;;;;;4981523;28;25092;-73
2024/01/15 10:13:52;;;;;;;12.55;3.70;;;;;;;;;;4954155;28;25063;-74
2024/01/15 10:16:18;;;;;;;13.57;3.72;;;;;;;;;;4967983;28;25065;-72
2024/01/15 10:18:43;;;;;;;13.57;3.70;;;;;;;;;;4974386;28;25061;-72
2024/01/15 10:21:09;;;;;;;11.63;3.83;;;;;;;;;;4957642;28;25060;-72
2024/01/15 10:23:36;;;;;;;9.23;2.85;;;;;;;;;;4969978;28;25104;-72
2024/01/15 10:26:02;;;;;;;10.00;4.18;;;;;;;;;;4979865;28;25095;-75
2024/01/15 10:28:30;;;;;;;11.80;3.80;;;;;;;;;;4976263;28;25083;-75
2024/01/15 10:30:57;;;;;;;13.18;4.75;;;;;;;;;;4983988;28;25062;-73
2024/01/15 10:33:26;;;;;;;20.08;5.28;;;;;;;;;;4976968;28;25084;-74
2024/01/15 10:35:56;;;;;;;16.83;5.10;;;;;;;;;;4989566;28;25178;-75
2024/01/15 10:38:22;;;;;;;13.32;5.25;;;;;;;;;;4990950;28;25085;-72
2024/01/15 10:40:51;;;;;;;9.18;3.78;;;;;;;;;;4990769;28;25075;-73
2024/01/15 10:43:20;;;;;;;8.57;3.40;;;;;;;;;;4970420;28;25058;-77
2024/01/15 10:45:46;;;;;;;4.75;3.80;;;;;;;;;;4988894;28;25081;-74
2024/01/15 10:48:13;;;;;;;7.22;4.25;;;;;;;;;;4992164;28;25077;-75
2024/01/15 10:50:39;;;;;;;9.80;4.13;;;;;;;;;;4989277;28;25066;-75
2024/01/15 10:53:05;;;;;;;9.23;3.83;;;;;;;;;;4988224;28;25102;-75
2024/01/15 10:55:32;;;;;;;5.80;4.25;;;;;;;;;;4970510;28;25064;-74
2024/01/15 10:57:58;;;;;;;6.60;5.28;;;;;;;;;;4970320;28;25090;-73
2024/01/15 11:00:25;;;;;;;12.07;4.35;;;;;;;;;;4971860;28;25135;-75
2024/01/15 11:02:55;;;;;;;10.57;4.78;;;;;;;;;;4990803;28;25047;-72
2024/01/15 11:05:22;;;;;;;8.98;5.30;;;;;;;;;;4982594;28;25124;-74
2024/01/15 11:07:48;;;;;;;13.48;4.97;;;;;;;;;;4967291;28;25079;-75
2024/01/15 11:10:33;;;;;;;12.70;4.75;;;;;;;;;;4964944;28;25146;-74
2024/01/15 11:12:59;;;;;;;13.07;4.97;;;;;;;;;;4984137;28;25066;-75
2024/01/15 11:15:28;;;;;;;15.40;4.90;;;;;;;;;;4975957;28;25057;-75
2024/01/15 11:18:03;;;;;;;13.27;5.47;;;;;;;;;;4974362;28;25172;-73
2024/01/15 11:20:29;;;;;;;13.02;4.55;;;;;;;;;;4984401;28;25148;-72
2024/01/15 11:22:57;;;;;;;14.45;4.82;;;;;;;;;;4985296;28;25134;-72
2024/01/15 11:25:23;;;;;;;11.27;4.68;;;;;;;;;;4985870;28;25168;-71
2024/01/15 11:27:53;;;;;;;10.25;4.43;;;;;;;;;;4975940;28;25082;-74
2024/01/15 11:30:22;;;;;;;13.27;4.95;;;;;;;;;;4976588;28;25052;-79
2024/01/15 11:32:48;;;;;;;11.77;4.93;;;;;;;;;;4993915;28;25059;-76
2024/01/15 11:35:15;;;;;;;10.95;3.72;;;;;;;;;;4990248;28;25070;-75
2024/01/15 11:37:56;;;;;;;11.10;3.75;;;;;;;;;;4968330;28;25071;-76
2024/01/15 11:40:23;;;;;;;7.63;3.42;;;;;;;;;;4980112;28;25050;-73
2024/01/15 11:42:49;;;;;;;10.52;3.53;;;;;;;;;;4985801;28;25066;-76
2024/01/15 11:45:22;;;;;;;15.50;4.47;;;;;;;;;;4992893;28;25049;-73
2024/01/15 11:47:47;;;;;;;;;;;;;;;;;;4989038;28;25172;-72
2024/01/15 11:50:15;;;;;;;11.02;3.67;;;;;;;;;;4994552;28;25110;-73
2024/01/15 11:52:43;;;;;;;12.05;3.85;;;;;;;;;;4993231;28;25085;-76
2024/01/15 11:55:30;;;;;;;10.52;3.28;;;;;;;;;;4982323;28;25105;-73
2024/01/15 11:57:58;;;;;;;12.10;4.10;;;;;;;;;;4992081;28;25060;-75
2024/01/15 12:00:24;;;;;;;9.82;3.30;;;;;;;;;;4967887;28;25064;-74
2024/01/15 12:02:51;;;;;;;8.35;3.95;;;;;;;;;;4985836;28;25077;-73
2024/01/15 12:05:17;;;;;;;6.32;3.20;;;;;;;;;;4983851;28;25115;-72
2024/01/15 12:07:44;;;;;;;4.40;3.38;;;;;;;;;;4988879;28;24880;-75
2024/01/15 12:10:11;;;;;;;6.63;3.88;;;;;;;;;;4990500;28;25111;-75
2024/01/15 12:12:40;;;;;;;8.63;3.97;;;;;;;;;;4987020;28;25047;-75
2024/01/15 12:15:06;;;;;;;14.00;4.40;;;;;;;;;;4985176;28;25051;-72
2024/01/15 12:17:32;;;;;;;16.00;3.65;;;;;;;;;;4968145;28;25103;-73
2024/01/15 12:19:58;;;;;;;12.10;4.10;;;;;;;;;;4987229;28;25061;-76
2024/01/15 12:22:24;;;;;;;5.55;3.38;;;;;;;;;;4988515;28;25126;-74
2024/01/15 12:24:50;;;;;;;13.45;4.30;;;;;;;;;;4987969;28;25092;-73
2024/01/15 12:27:16;;;;;;;10.75;3.63;;;;;;;;;;4985057;28;25144;-73
2024/01/15 12:29:43;;;;;;;7.88;3.60;;;;;;;;;;4985740;28;25119;-76
2024/01/15 12:32:09;;;;;;;7.95;3.70;;;;;;;;;;4992466;28;25069;-74
2024/01/15 12:34:35;;;;;;;10.95;3.95;;;;;;;;;;4983852;28;25071;-71
2024/01/15 12:37:01;;;;;;;15.15;3.20;;;;;;;;;;4986165;28;25077;-75
2024/01/15 12:39:27;;;;;;;12.45;4.03;;;;;;;;;;4989593;28;25093;-74
2024/01/15 12:41:53;;;;;;;13.52;3.60;;;;;;;;;;4972554;28;25076;-74
2024/01/15 12:44:19;;;;;;;15.25;3.85;;;;;;;;;;4980966;28;25087;-76
2024/01/15 12:46:45;;;;;;;9.38;3.70;;;;;;;;;;4970429;28;25052;-73
2024/01/15 12:49:13;;;;;;;12.52;5.00;;;;;;;;;;4955662;28;25165;-71
2024/01/15 12:51:39;;;;;;;8.38;4.38;;;;;;;;;;4974383;28;25065;-75
2024/01/15 12:54:05;;;;;;;15.80;4.90;;;;;;;;;;4971656;28;25085;-75
2024/01/15 12:56:31;;;;;;;17.13;4.63;;;;;;;;;;4966972;28;25134;-76
2024/01/15 12:58:57;;;;;;;12.57;4.20;;;;;;;;;;4984728;28;25073;-74
2024/01/15 13:01:23;;;;;;;7.07;3.70;;;;;;;;;;4988613;28;25128;-76
2024/01/15 13:03:52;;;;;;;16.02;4.65;;;;;;;;;;4991898;28;25066;-76
2024/01/15 13:06:18;;;;;;;17.40;4.80;;;;;;;;;;4966586;28;25146;-73
2024/01/15 13:08:44;;;;;;;9.15;5.43;;;;;;;;;;4992826;28;25049;-74
2024/01/15 13:11:10;;;;;;;12.13;5.07;;;;;;;;;;4990964;28;25117;-75
2024/01/15 13:13:37;;;;;;;14.98;5.43;;;;;;;;;;4987054;28;25119;-74
2024/01/15 13:16:03;;;;;;;13.07;4.72;;;;;;;;;;4966004;28;25071;-73
2024/01/15 13:18:30;;;;;;;15.57;5.30;;;;;;;;;;4965231;28;25096;-75
2024/01/15 13:20:56;;;;;;;17.17;5.43;;;;;;;;;;4974220;28;25057;-76
2024/01/15 13:23:22;;;;;;;12.95;5.75;;;;;;;;;;4983336;28;25082;-75
2024/01/15 13:25:49;;;;;;;9.00;4.45;;;;;;;;;;4979101;28;25103;-75
2024/01/15 13:28:15;;;;;;;8.68;5.07;;;;;;;;;;4964745;28;25073;-73
2024/01/15 13:30:42;;;;;;;12.77;5.13;;;;;;;;;;4964467;28;25072;-73
2024/01/15 13:33:08;;;;;;;13.10;5.95;;;;;;;;;;4965564;28;25063;-73
2024/01/15 13:35:35;;;;;;;9.68;4.88;;;;;;;;;;4975944;28;25074;-73
2024/01/15 13:38:01;;;;;;;9.88;4.85;;;;;;;;;;4958004;28;25086;-74
2024/01/15 13:40:28;;;;;;;18.10;4.50;;;;;;;;;;4986802;28;25051;-74
2024/01/15 13:42:54;;;;;;;16.58;4.30;;;;;;;;;;4966404;28;25074;-74
2024/01/15 13:45:20;;;;;;;22.08;4.28;;;;;;;;;;4966050;28;25068;-73
2024/01/15 13:47:46;;;;;;;20.13;4.65;;;;;;;;;;4973785;28;25067;-73
2024/01/15 13:50:12;;;;;;;17.30;3.30;;;;;;;;;;4996324;28;25090;-73
2024/01/15 13:52:38;;;;;;;8.57;2.25;;;;;;;;;;4988627;28;25059;-72
2024/01/15 13:55:06;;;;;;;5.25;1.70;;;;;;;;;;4985174;28;25064;-75
2024/01/15 13:57:32;;;;;;;7.82;2.90;;;;;;;;;;4985038;28;25138;-74
2024/01/15 13:59:58;;;;;;;8.73;3.30;;;;;;;;;;4992396;28;25173;-72
2024/01/15 14:02:24;;;;;;;10.00;3.10;;;;;;;;;;4954141;28;25063;-72
2024/01/15 14:04:50;;;;;;;8.95;3.72;;;;;;;;;;4966400;28;25054;-73
2024/01/15 14:07:16;;;;;;;12.77;2.88;;;;;;;;;;4969313;28;25148;-74
2024/01/15 14:09:42;;;;;;;12.38;3.67;;;;;;;;;;4951852;28;25071;-72
2024/01/15 14:12:08;;;;;;;9.90;2.70;;;;;;;;;;4966660;28;25055;-72
2024/01/15 14:14:34;;;;;;;11.85;3.50;;;;;;;;;;4968937;28;25086;-71
2024/01/15 14:17:00;;;;;;;11.40;2.58;;;;;;;;;;4966990;28;25128;-75
2024/01/15 14:19:26;;;;;;;11.23;3.08;;;;;;;;;;4949131;28;25078;-73
2024/01/15 14:21:52;;;;;;;13.65;3.28;;;;;;;;;;4966812;28;25114;-74
2024/01/15 14:24:18;;;;;;;12.77;3.38;;;;;;;;;;4987337;28;25152;-74
2024/01/15 14:26:45;;;;;;;13.07;3.22;;;;;;;;;;4987564;28;25064;-74
2024/01/15 14:29:11;;;;;;;10.80;3.08;;;;;;;;;;4991762;28;25140;-75